Time;durP1;ratioP1;P1;durP2;ratioP2;P2;SDS_P1;SDS_P2;PMS_P1;PMS_P2;Temp;Humidity;BMP_temperature;BMP_pressure;BME280_temperature;BME280_humidity;BME280_pressure;Samples;Min_cycle;Max_cycle;Signal;HPM_P1;HPM_P2
2022/04/02 03:01:28;;;;;;;1.40;1.30;;;2.40;86.70;;;;;;5613529;23;20589;-71
2022/04/02 03:03:55;;;;;;;1.40;1.30;;;2.40;85.80;;;;;;4956163;28;20455;-71
2022/04/02 03:06:22;;;;;;;1.47;1.37;;;2.50;86.00;;;;;;4955943;28;20447;-71
2022/04/02 03:08:49;;;;;;;1.30;1.20;;;2.40;85.70;;;;;;4955663;28;20873;-71
2022/04/02 03:11:16;;;;;;;1.37;1.27;;;2.40;85.80;;;;;;4955755;28;20791;-71
2022/04/02 03:13:43;;;;;;;1.20;1.10;;;2.50;85.80;;;;;;4955659;28;20446;-71
2022/04/02 03:16:10;;;;;;;1.40;1.30;;;2.40;86.00;;;;;;5064876;23;20463;-76
2022/04/02 03:18:38;;;;;;;1.40;1.30;;;2.50;85.60;;;;;;4956095;28;20439;-76
2022/04/02 03:21:05;;;;;;;1.50;1.40;;;2.50;85.70;;;;;;4955941;28;20537;-76
2022/04/02 03:23:32;;;;;;;1.47;1.37;;;2.30;86.00;;;;;;4955976;28;20557;-76
2022/04/02 03:25:58;;;;;;;1.83;1.53;;;2.40;86.50;;;;;;4955626;28;20899;-76
2022/04/02 03:28:25;;;;;;;1.10;1.00;;;2.50;85.70;;;;;;4955916;28;20451;-76
2022/04/02 03:30:52;;;;;;;2.23;1.40;;;2.30;85.70;;;;;;4955883;28;20447;-76
2022/04/02 03:33:20;;;;;;;1.40;1.30;;;2.30;86.70;;;;;;4955511;28;20506;-76
2022/04/02 03:35:48;;;;;;;1.40;1.30;;;2.30;86.50;;;;;;4955731;28;20500;-76
2022/04/02 03:38:15;;;;;;;1.30;1.20;;;2.40;86.60;;;;;;4955633;28;20451;-76
2022/04/02 03:40:42;;;;;;;1.00;1.00;;;2.40;86.30;;;;;;4955358;28;21064;-76
2022/04/02 03:43:09;;;;;;;1.13;1.07;;;2.30;85.80;;;;;;4955723;28;20455;-76
2022/04/02 03:45:36;;;;;;;1.57;1.47;;;2.30;86.70;;;;;;4955625;28;20466;-76
2022/04/02 03:48:02;;;;;;;1.30;1.20;;;2.30;86.20;;;;;;4955551;28;20478;-76
2022/04/02 03:50:29;;;;;;;1.60;1.50;;;2.40;86.10;;;;;;4955560;28;20447;-76
2022/04/02 03:52:57;;;;;;;1.50;1.40;;;2.20;85.80;;;;;;4955752;28;20451;-76
2022/04/02 03:55:24;;;;;;;1.20;1.10;;;2.10;86.00;;;;;;4955527;28;20498;-76
2022/04/02 03:57:52;;;;;;;1.30;1.20;;;2.10;86.70;;;;;;4955135;28;20869;-76
2022/04/02 04:00:19;;;;;;;1.67;1.27;;;2.10;86.80;;;;;;4955310;28;20550;-76
2022/04/02 04:02:46;;;;;;;1.00;1.00;;;2.10;86.50;;;;;;4955290;28;20451;-76
2022/04/02 04:05:13;;;;;;;1.20;1.10;;;2.10;86.60;;;;;;4955097;28;20793;-76
2022/04/02 04:07:40;;;;;;;1.83;1.30;;;2.20;86.70;;;;;;4955286;28;20549;-76
2022/04/02 04:10:09;;;;;;;1.23;1.13;;;2.10;86.40;;;;;;4955315;28;20806;-76
2022/04/02 04:12:35;;;;;;;1.53;1.43;;;2.10;86.60;;;;;;4955300;28;20446;-76
2022/04/02 04:15:02;;;;;;;1.73;1.63;;;2.10;86.50;;;;;;4955276;28;20451;-76
2022/04/02 04:17:29;;;;;;;1.40;1.30;;;2.10;86.10;;;;;;4954939;28;20549;-73
2022/04/02 04:19:56;;;;;;;1.47;1.37;;;2.10;86.70;;;;;;4954968;28;21021;-73
2022/04/02 04:22:22;;;;;;;1.33;1.20;;;2.10;86.50;;;;;;4954841;28;20482;-74
2022/04/02 04:24:49;;;;;;;1.50;1.40;;;2.10;86.60;;;;;;4955214;28;20459;-73
2022/04/02 04:27:17;;;;;;;1.50;1.40;;;2.10;86.10;;;;;;4955157;28;20471;-74
2022/04/02 04:29:44;;;;;;;1.20;1.10;;;1.90;86.50;;;;;;4955183;28;20518;-73
2022/04/02 04:32:10;;;;;;;1.57;1.13;;;2.00;86.50;;;;;;4955100;28;20443;-73
2022/04/02 04:34:37;;;;;;;1.40;1.30;;;1.90;86.10;;;;;;4955116;28;20455;-73
2022/04/02 04:37:04;;;;;;;2.93;1.10;;;1.90;86.80;;;;;;4955053;28;20478;-74
2022/04/02 04:39:31;;;;;;;1.10;1.00;;;1.80;86.70;;;;;;4955237;28;20844;-75
2022/04/02 04:41:57;;;;;;;1.00;1.00;;;1.80;86.80;;;;;;4954998;28;20557;-76
2022/04/02 04:44:25;;;;;;;1.40;1.30;;;1.90;86.70;;;;;;4955330;28;21013;-76
2022/04/02 04:46:52;;;;;;;1.27;1.17;;;2.00;86.50;;;;;;4958605;28;20475;-74
2022/04/02 04:49:19;;;;;;;1.33;1.23;;;2.00;86.30;;;;;;4958795;28;20451;-74
2022/04/02 04:51:45;;;;;;;1.40;1.30;;;2.10;86.50;;;;;;4958716;28;20513;-74
2022/04/02 04:54:12;;;;;;;1.10;1.10;;;2.20;86.20;;;;;;4958419;28;21000;-74
2022/04/02 04:56:38;;;;;;;1.30;1.20;;;2.20;85.90;;;;;;4958651;28;20503;-74
2022/04/02 04:59:05;;;;;;;1.30;1.20;;;2.20;85.70;;;;;;4958587;28;20454;-74
2022/04/02 05:01:33;;;;;;;1.30;1.20;;;2.30;85.60;;;;;;4958496;28;20487;-74
2022/04/02 05:04:00;;;;;;;1.07;1.00;;;2.20;85.90;;;;;;4958522;28;20497;-74
2022/04/02 05:06:28;;;;;;;1.20;1.10;;;2.20;85.70;;;;;;4958403;28;20470;-74
2022/04/02 05:08:55;;;;;;;1.10;1.10;;;2.20;86.20;;;;;;4958935;28;20455;-74
2022/04/02 05:11:22;;;;;;;1.00;1.00;;;2.10;86.20;;;;;;4958036;28;20486;-74
2022/04/02 05:13:49;;;;;;;1.20;1.10;;;2.10;86.10;;;;;;4958347;28;20450;-74
2022/04/02 05:16:16;;;;;;;1.10;1.10;;;2.10;86.40;;;;;;4958228;28;20507;-74
2022/04/02 05:18:44;;;;;;;1.20;1.10;;;2.10;86.20;;;;;;4962132;28;20461;-74
2022/04/02 05:21:11;;;;;;;1.40;1.30;;;2.20;86.00;;;;;;4961088;28;20541;-74
2022/04/02 05:23:37;;;;;;;1.30;1.20;;;2.10;85.90;;;;;;4961114;28;20558;-74
2022/04/02 05:26:04;;;;;;;1.10;1.00;;;2.10;85.60;;;;;;4960492;28;20471;-74
2022/04/02 05:28:31;;;;;;;1.10;1.10;;;2.00;85.40;;;;;;4960097;28;20443;-74
2022/04/02 05:30:57;;;;;;;1.47;1.37;;;2.00;85.90;;;;;;4960783;28;20446;-73
2022/04/02 05:33:24;;;;;;;1.20;1.10;;;2.00;86.10;;;;;;4960543;28;20455;-74
2022/04/02 05:35:52;;;;;;;1.20;1.20;;;1.90;86.40;;;;;;4960274;28;20462;-73
2022/04/02 05:38:19;;;;;;;1.10;1.10;;;1.90;86.40;;;;;;4960184;28;20473;-73
2022/04/02 05:40:46;;;;;;;1.20;1.10;;;1.90;86.60;;;;;;4959962;28;20454;-73
2022/04/02 05:43:12;;;;;;;1.10;1.00;;;1.80;86.70;;;;;;4960284;28;20455;-73
2022/04/02 05:45:39;;;;;;;1.07;1.07;;;1.90;86.70;;;;;;4960635;28;20458;-74
2022/04/02 05:48:06;;;;;;;1.27;1.17;;;1.90;86.40;;;;;;4960723;28;20465;-73
2022/04/02 05:50:33;;;;;;;1.00;1.00;;;1.90;86.40;;;;;;4960226;28;20451;-73
2022/04/02 05:53:01;;;;;;;1.23;1.13;;;2.00;86.50;;;;;;4960478;28;20461;-73
2022/04/02 05:55:28;;;;;;;1.13;1.07;;;2.10;86.40;;;;;;4960357;28;20462;-76
2022/04/02 05:57:55;;;;;;;0.90;0.90;;;2.20;86.10;;;;;;4960683;28;20474;-73
2022/04/02 06:00:23;;;;;;;0.90;0.90;;;2.30;85.60;;;;;;4959273;28;20451;-74
2022/04/02 06:02:50;;;;;;;1.13;1.03;;;2.30;85.30;;;;;;4957559;28;20537;-74
2022/04/02 06:05:16;;;;;;;1.00;1.00;;;2.40;85.40;;;;;;4957351;28;20486;-73
2022/04/02 06:07:44;;;;;;;1.07;0.80;;;2.30;84.90;;;;;;4957275;28;20478;-74
2022/04/02 06:10:13;;;;;;;1.07;1.00;;;2.20;85.20;;;;;;4957294;28;20461;-74
2022/04/02 06:12:40;;;;;;;1.07;1.07;;;2.20;85.60;;;;;;4956897;28;21001;-74
2022/04/02 06:15:09;;;;;;;0.83;0.83;;;2.20;85.30;;;;;;4957128;28;20459;-74
2022/04/02 06:17:36;;;;;;;1.10;1.00;;;2.20;85.20;;;;;;4956936;28;20505;-74
2022/04/02 06:20:04;;;;;;;0.90;0.90;;;2.10;85.60;;;;;;4956806;28;21006;-74
2022/04/02 06:22:31;;;;;;;0.90;0.90;;;2.10;85.80;;;;;;4957744;28;20667;-74
2022/04/02 06:24:58;;;;;;;0.93;0.93;;;2.30;85.80;;;;;;4957043;28;20482;-74
2022/04/02 06:27:26;;;;;;;0.90;0.90;;;2.20;85.50;;;;;;4957148;28;20475;-74
2022/04/02 06:29:52;;;;;;;1.03;0.97;;;2.10;85.90;;;;;;4957001;28;20451;-74
2022/04/02 06:32:22;;;;;;;0.80;0.80;;;2.30;86.00;;;;;;4957124;28;20453;-74
2022/04/02 06:34:48;;;;;;;0.93;0.93;;;2.50;85.60;;;;;;4956787;28;20490;-74
2022/04/02 06:37:15;;;;;;;0.90;0.90;;;2.40;84.70;;;;;;4956431;28;20889;-74
2022/04/02 06:39:42;;;;;;;1.13;1.03;;;2.40;85.10;;;;;;4956777;28;20451;-73
2022/04/02 06:42:09;;;;;;;1.10;1.00;;;2.50;84.80;;;;;;4956678;28;20505;-74
2022/04/02 06:44:37;;;;;;;0.87;0.87;;;2.50;84.70;;;;;;4956888;28;20455;-74
2022/04/02 06:47:04;;;;;;;0.90;0.90;;;2.40;84.70;;;;;;4957008;28;20483;-74
2022/04/02 06:49:31;;;;;;;0.90;0.90;;;2.40;84.80;;;;;;4956943;28;20490;-75
2022/04/02 06:51:59;;;;;;;0.90;0.90;;;2.40;84.30;;;;;;4956838;28;20447;-74
2022/04/02 06:54:26;;;;;;;0.90;0.90;;;2.40;84.70;;;;;;4957404;28;20492;-75
2022/04/02 06:56:52;;;;;;;1.00;1.00;;;2.40;84.30;;;;;;4956388;28;20888;-74
2022/04/02 06:59:19;;;;;;;1.00;1.00;;;2.40;84.80;;;;;;4956147;28;20502;-75
2022/04/02 07:01:47;;;;;;;1.00;1.00;;;2.40;84.80;;;;;;4956292;28;20518;-74
2022/04/02 07:04:14;;;;;;;2.60;2.17;;;2.30;84.60;;;;;;4956567;28;20502;-74
2022/04/02 07:06:44;;;;;;;0.90;0.90;;;2.30;84.80;;;;;;4957745;28;20484;-75
2022/04/02 07:09:11;;;;;;;0.90;0.90;;;2.30;85.00;;;;;;4956926;28;20463;-74
2022/04/02 07:11:38;;;;;;;0.90;0.90;;;2.30;84.90;;;;;;4957426;28;20821;-75
2022/04/02 07:14:05;;;;;;;1.00;0.90;;;2.30;85.00;;;;;;4957477;28;20451;-74
2022/04/02 07:16:31;;;;;;;1.00;0.87;;;2.20;85.00;;;;;;4957081;28;20576;-74
2022/04/02 07:19:01;;;;;;;0.80;0.80;;;2.30;85.40;;;;;;4958740;28;20455;-74
2022/04/02 07:21:30;;;;;;;0.80;0.73;;;2.40;84.90;;;;;;4959477;28;20482;-75
2022/04/02 07:23:57;;;;;;;1.00;1.00;;;2.40;84.60;;;;;;4958652;28;20459;-74
2022/04/02 07:26:24;;;;;;;0.80;0.80;;;2.40;84.70;;;;;;4955920;28;20558;-74
2022/04/02 07:28:52;;;;;;;1.00;0.90;;;2.50;84.70;;;;;;4955911;28;20871;-75
2022/04/02 07:31:19;;;;;;;1.17;0.90;;;2.50;83.90;;;;;;4955847;28;20450;-75
2022/04/02 07:33:45;;;;;;;1.00;1.00;;;2.40;83.90;;;;;;4955877;28;20451;-74
2022/04/02 07:36:21;;;;;;;0.90;0.90;;;2.40;84.60;;;;;;4955729;28;20475;-75
2022/04/02 07:38:56;;;;;;;0.90;0.90;;;2.30;84.80;;;;;;4955768;28;20439;-75
2022/04/02 07:41:32;;;;;;;0.80;0.80;;;2.10;84.80;;;;;;4955692;28;20856;-75
2022/04/02 07:44:02;;;;;;;0.80;0.80;;;2.10;85.30;;;;;;4955746;28;20502;-75
2022/04/02 07:46:31;;;;;;;0.90;0.80;;;2.30;85.50;;;;;;4955601;28;20475;-75
2022/04/02 07:48:58;;;;;;;0.83;0.83;;;2.30;84.90;;;;;;4955608;28;20499;-74
2022/04/02 07:51:29;;;;;;;1.00;1.00;;;2.40;84.90;;;;;;4955585;28;20446;-74
2022/04/02 07:53:57;;;;;;;0.80;0.80;;;2.40;84.60;;;;;;4956428;28;20567;-75
2022/04/02 07:56:28;;;;;;;0.90;0.90;;;2.40;84.70;;;;;;4955474;28;20522;-75
2022/04/02 07:59:00;;;;;;;0.83;0.83;;;2.30;84.20;;;;;;4956089;28;20466;-75
2022/04/02 08:01:27;;;;;;;1.03;0.97;;;2.40;84.60;;;;;;4955404;28;20450;-75
2022/04/02 08:03:55;;;;;;;0.93;0.90;;;2.40;84.50;;;;;;4955396;28;20457;-75
2022/04/02 08:06:23;;;;;;;0.90;0.90;;;2.50;84.20;;;;;;4955351;28;20510;-75
2022/04/02 08:08:51;;;;;;;0.80;0.80;;;2.40;83.90;;;;;;4955446;28;20497;-75
2022/04/02 08:11:19;;;;;;;1.00;0.90;;;2.50;84.40;;;;;;4955331;28;20514;-74
2022/04/02 08:13:46;;;;;;;1.00;1.00;;;2.50;84.10;;;;;;4955298;28;20450;-74
2022/04/02 08:16:14;;;;;;;1.00;0.90;;;2.50;83.70;;;;;;4955011;28;20970;-75
2022/04/02 08:18:42;;;;;;;0.90;0.90;;;2.60;83.80;;;;;;4955514;28;20436;-75
2022/04/02 08:21:09;;;;;;;0.90;0.90;;;2.50;83.60;;;;;;4958978;28;20461;-75
2022/04/02 08:23:36;;;;;;;2.70;1.90;;;2.40;82.90;;;;;;4959155;28;20482;-75
2022/04/02 08:26:23;;;;;;;1.00;1.00;;;2.40;83.30;;;;;;4959155;28;20522;-74
2022/04/02 08:29:07;;;;;;;0.80;0.80;;;2.30;83.70;;;;;;4958872;29;20466;-74
2022/04/02 08:31:45;;;;;;;1.03;0.93;;;2.30;84.40;;;;;;4959136;28;20469;-75
2022/04/02 08:34:21;;;;;;;1.00;0.90;;;2.30;84.40;;;;;;4958814;28;20448;-75
2022/04/02 08:36:53;;;;;;;0.90;0.90;;;2.40;84.40;;;;;;4958975;28;20466;-74
2022/04/02 08:39:28;;;;;;;0.90;0.80;;;2.50;83.50;;;;;;4958692;28;20439;-75
2022/04/02 08:42:28;;;;;;;0.90;0.90;;;2.50;83.70;;;;;;4958933;28;20470;-74
2022/04/02 08:45:09;;;;;;;0.97;0.97;;;2.60;83.40;;;;;;4958968;28;20435;-74
2022/04/02 08:48:09;;;;;;;1.00;1.00;;;2.50;82.80;;;;;;4959167;28;20476;-74
2022/04/02 08:50:45;;;;;;;0.80;0.80;;;2.50;82.80;;;;;;4959057;28;20822;-75
2022/04/02 08:53:19;;;;;;;0.90;0.90;;;2.40;83.50;;;;;;4959246;28;20559;-75
2022/04/02 08:55:58;;;;;;;0.90;0.90;;;2.60;83.50;;;;;;4959148;28;20435;-74
2022/04/02 08:58:49;;;;;;;0.90;0.90;;;2.70;83.50;;;;;;4958852;28;20431;-75
2022/04/02 09:01:24;;;;;;;1.00;1.00;;;2.60;82.30;;;;;;4959105;28;20435;-74
2022/04/02 09:04:32;;;;;;;0.90;0.90;;;2.60;82.70;;;;;;4958575;28;20836;-74
2022/04/02 09:07:47;;;;;;;1.00;1.00;;;2.60;83.00;;;;;;4904082;28;20885;-75
2022/04/02 09:10:57;;;;;;;0.97;0.97;;;2.80;83.00;;;;;;4958571;28;20453;-75
2022/04/02 09:14:16;;;;;;;0.80;0.80;;;2.90;82.30;;;;;;4958476;28;20498;-75
2022/04/02 09:17:01;;;;;;;1.27;1.00;;;2.90;81.80;;;;;;5054711;23;20585;-72
2022/04/02 09:19:36;;;;;;;1.17;1.07;;;2.90;82.20;;;;;;4957936;28;20431;-72
2022/04/02 09:22:07;;;;;;;1.10;1.00;;;2.90;81.50;;;;;;4957793;28;20435;-72
2022/04/02 09:25:20;;;;;;;1.30;1.20;;;2.90;81.60;;;;;;4958039;28;20529;-73
2022/04/02 09:28:10;;;;;;;1.13;1.03;;;2.70;82.10;;;;;;4958036;28;20505;-72
2022/04/02 09:31:01;;;;;;;1.07;1.07;;;2.60;82.40;;;;;;4957496;28;20498;-72
2022/04/02 09:34:00;;;;;;;1.17;1.07;;;2.70;82.60;;;;;;4957523;28;20490;-72
2022/04/02 09:36:31;;;;;;;0.97;0.97;;;2.90;82.90;;;;;;4945631;28;20483;-72
2022/04/02 09:39:06;;;;;;;0.90;0.90;;;2.80;81.40;;;;;;4957391;28;20522;-72
2022/04/02 09:41:48;;;;;;;0.90;0.90;;;2.60;81.80;;;;;;4957730;28;20435;-71
2022/04/02 09:44:33;;;;;;;1.00;1.00;;;2.70;82.40;;;;;;4957517;28;20439;-72
2022/04/02 09:47:06;;;;;;;0.90;0.90;;;2.90;81.90;;;;;;4957334;28;20574;-72
2022/04/02 09:49:49;;;;;;;1.10;1.00;;;3.00;80.70;;;;;;4957153;28;20447;-73
2022/04/02 09:52:22;;;;;;;0.93;0.93;;;2.90;81.00;;;;;;4956863;28;20919;-72
2022/04/02 09:54:54;;;;;;;1.00;1.00;;;2.90;81.00;;;;;;4957261;28;20513;-72
2022/04/02 09:57:29;;;;;;;1.07;1.00;;;2.70;80.50;;;;;;4957163;28;20471;-72
2022/04/02 10:00:04;;;;;;;1.27;1.17;;;2.50;80.90;;;;;;4957187;28;20490;-72
2022/04/02 10:02:59;;;;;;;1.10;1.10;;;2.40;80.90;;;;;;4956869;28;20566;-72
2022/04/02 10:05:39;;;;;;;0.90;0.90;;;2.40;81.20;;;;;;4957119;28;20474;-73
2022/04/02 10:08:12;;;;;;;1.17;1.10;;;2.50;81.80;;;;;;4956975;28;20486;-72
2022/04/02 10:10:42;;;;;;;1.13;1.03;;;2.40;82.30;;;;;;4957011;29;20490;-73
2022/04/02 10:13:09;;;;;;;1.30;1.20;;;2.50;82.10;;;;;;4956641;28;20858;-72
2022/04/02 10:15:41;;;;;;;1.10;1.10;;;2.70;82.20;;;;;;4956956;28;20447;-72
2022/04/02 10:18:11;;;;;;;1.03;1.03;;;2.80;81.20;;;;;;4956512;28;20861;-72
2022/04/02 10:20:40;;;;;;;1.17;1.07;;;2.70;80.40;;;;;;4956769;28;20521;-71
2022/04/02 10:23:13;;;;;;;0.90;0.90;;;2.80;81.20;;;;;;4956498;28;20483;-73
2022/04/02 10:25:54;;;;;;;1.10;1.00;;;2.90;80.60;;;;;;4956601;28;20463;-73
2022/04/02 10:28:26;;;;;;;1.10;1.10;;;2.80;80.60;;;;;;4956776;28;20479;-72
2022/04/02 10:30:56;;;;;;;1.10;1.10;;;2.90;80.70;;;;;;4956464;28;20929;-71
2022/04/02 10:33:29;;;;;;;1.00;1.00;;;3.00;80.70;;;;;;4956368;28;20502;-72
2022/04/02 10:35:57;;;;;;;0.97;0.97;;;2.90;80.20;;;;;;4956722;28;20446;-72
2022/04/02 10:38:34;;;;;;;1.87;1.10;;;2.90;80.30;;;;;;4956338;28;20474;-72
2022/04/02 10:41:05;;;;;;;1.10;1.00;;;2.90;80.10;;;;;;4956576;28;20462;-72
2022/04/02 10:43:37;;;;;;;0.90;0.90;;;3.00;79.80;;;;;;4955456;28;20522;-72
2022/04/02 10:46:05;;;;;;;1.00;1.00;;;3.10;80.40;;;;;;4956621;28;20443;-71
2022/04/02 10:48:44;;;;;;;1.30;1.20;;;3.10;79.70;;;;;;4956349;28;20544;-72
2022/04/02 10:51:14;;;;;;;1.00;1.00;;;3.20;79.70;;;;;;4956119;28;20443;-72
2022/04/02 10:53:44;;;;;;;1.00;1.00;;;3.20;79.70;;;;;;4955927;28;20450;-72
2022/04/02 10:56:16;;;;;;;2.13;1.93;;;3.20;79.50;;;;;;4956341;28;20469;-72
2022/04/02 10:58:48;;;;;;;1.30;1.00;;;3.10;79.20;;;;;;4955589;28;20756;-72
2022/04/02 11:01:18;;;;;;;1.20;1.10;;;2.90;79.20;;;;;;4955891;28;20439;-72
2022/04/02 11:03:53;;;;;;;1.10;1.10;;;3.00;79.80;;;;;;4956468;28;20486;-72
2022/04/02 11:06:46;;;;;;;0.90;0.90;;;3.10;79.30;;;;;;4956929;28;20439;-71
2022/04/02 11:09:33;;;;;;;1.00;1.00;;;3.20;79.30;;;;;;4958372;28;20506;-73
2022/04/02 11:12:05;;;;;;;1.10;1.10;;;3.20;79.50;;;;;;4959476;28;20869;-73
2022/04/02 11:14:38;;;;;;;1.20;1.10;;;3.10;78.80;;;;;;4960268;28;20494;-73
2022/04/02 11:17:06;;;;;;;1.53;1.43;;;2.80;79.30;;;;;;4957655;28;20471;-73
2022/04/02 11:22:28;;;;;;;2.73;1.33;;;2.90;80.50;;;;;;4955671;29;20774;-73
2022/04/02 11:25:03;;;;;;;1.20;1.10;;;2.90;80.20;;;;;;4955636;28;20435;-73
2022/04/02 11:27:31;;;;;;;1.10;1.00;;;3.00;80.60;;;;;;4955883;28;20506;-73
2022/04/02 11:30:03;;;;;;;1.00;1.00;;;3.20;80.20;;;;;;4956164;28;20795;-72
2022/04/02 11:32:39;;;;;;;1.53;1.37;;;3.20;79.80;;;;;;4955191;28;20978;-72
2022/04/02 11:35:08;;;;;;;1.10;1.10;;;3.10;79.60;;;;;;4954901;28;20431;-74
2022/04/02 11:37:57;;;;;;;1.13;1.07;;;3.00;80.20;;;;;;4955256;28;20470;-73
2022/04/02 11:40:27;;;;;;;1.17;1.10;;;3.00;79.70;;;;;;4955556;28;20443;-72
2022/04/02 11:42:55;;;;;;;1.30;1.20;;;2.80;80.30;;;;;;4955420;28;20490;-73
2022/04/02 11:45:22;;;;;;;1.20;1.10;;;2.70;81.00;;;;;;4955151;28;20553;-73
2022/04/02 11:47:50;;;;;;;1.03;1.03;;;2.70;80.50;;;;;;4955480;28;20474;-73
2022/04/02 11:50:26;;;;;;;1.30;1.20;;;2.60;81.50;;;;;;4955143;28;20862;-73
2022/04/02 11:52:55;;;;;;;1.00;1.00;;;2.80;81.10;;;;;;4955377;28;20514;-72
2022/04/02 11:55:23;;;;;;;1.47;1.37;;;3.00;81.00;;;;;;4954769;28;20453;-73
2022/04/02 11:58:02;;;;;;;1.20;1.10;;;3.20;79.30;;;;;;4954722;28;20488;-73
2022/04/02 12:00:30;;;;;;;1.00;1.00;;;3.30;78.90;;;;;;4955304;28;20447;-73
2022/04/02 12:02:58;;;;;;;1.30;1.20;;;3.40;78.00;;;;;;4954523;28;20905;-72
2022/04/02 12:05:40;;;;;;;1.00;1.00;;;3.60;78.10;;;;;;4954422;28;20935;-73
2022/04/02 12:08:08;;;;;;;1.30;1.10;;;3.40;78.10;;;;;;4954703;28;20551;-73
2022/04/02 12:10:44;;;;;;;1.00;1.00;;;3.50;79.10;;;;;;4954714;28;20530;-72
2022/04/02 12:13:11;;;;;;;1.03;1.00;;;3.40;79.10;;;;;;4954406;28;20470;-73
2022/04/02 12:15:39;;;;;;;1.40;1.30;;;3.20;78.80;;;;;;4954638;28;20538;-73
2022/04/02 12:18:08;;;;;;;1.00;1.00;;;3.00;79.60;;;;;;4954142;28;20482;-73
2022/04/02 12:20:37;;;;;;;1.13;1.03;;;2.80;80.00;;;;;;4954621;28;20459;-73
2022/04/02 12:23:12;;;;;;;1.30;1.20;;;2.60;80.90;;;;;;4954457;28;20491;-73
2022/04/02 12:25:40;;;;;;;1.20;1.10;;;2.60;81.80;;;;;;4954671;28;20481;-74
2022/04/02 12:28:12;;;;;;;1.00;1.00;;;2.70;81.50;;;;;;4954678;28;20479;-73
2022/04/02 12:30:42;;;;;;;0.90;0.90;;;2.70;80.90;;;;;;4954520;28;20489;-73
2022/04/02 12:33:11;;;;;;;1.33;1.23;;;2.60;81.20;;;;;;4954607;28;20534;-72
2022/04/02 12:35:38;;;;;;;1.30;1.20;;;2.60;82.20;;;;;;4954739;28;20451;-73
2022/04/02 12:38:07;;;;;;;1.57;1.10;;;2.60;81.80;;;;;;4954476;28;20475;-73
2022/04/02 12:40:42;;;;;;;1.40;1.30;;;2.80;82.00;;;;;;4955310;28;20455;-72
2022/04/02 12:43:10;;;;;;;1.23;1.23;;;2.80;82.10;;;;;;4954794;28;20470;-73
2022/04/02 12:45:38;;;;;;;1.10;1.10;;;2.80;81.70;;;;;;4954786;28;20570;-72
2022/04/02 12:48:07;;;;;;;1.50;1.40;;;2.90;81.80;;;;;;4954686;28;20471;-72
2022/04/02 12:50:36;;;;;;;1.30;1.30;;;2.70;80.40;;;;;;4954542;28;20533;-72
2022/04/02 12:53:04;;;;;;;1.20;1.10;;;2.80;80.90;;;;;;4954683;28;20466;-72
2022/04/02 12:55:32;;;;;;;1.40;1.30;;;2.80;81.20;;;;;;4954435;28;20447;-73
2022/04/02 12:58:05;;;;;;;1.20;1.20;;;3.00;81.10;;;;;;4954324;28;20569;-73
2022/04/02 13:00:34;;;;;;;1.40;1.30;;;3.00;81.10;;;;;;4954177;28;20927;-73
2022/04/02 13:03:02;;;;;;;1.17;1.10;;;3.20;80.70;;;;;;4954153;28;20451;-73
2022/04/02 13:05:45;;;;;;;1.00;1.00;;;3.10;80.60;;;;;;4954291;28;20502;-73
2022/04/02 13:08:24;;;;;;;1.00;1.00;;;3.10;80.70;;;;;;4958206;28;20563;-73
2022/04/02 13:10:54;;;;;;;1.13;1.13;;;3.20;80.00;;;;;;4957886;28;20449;-73
2022/04/02 13:13:37;;;;;;;1.40;1.30;;;3.00;79.60;;;;;;4958194;28;20518;-74
2022/04/02 13:16:05;;;;;;;1.30;1.20;;;3.00;79.40;;;;;;4957964;28;20861;-73
2022/04/02 13:21:20;;;;;;;1.60;1.50;;;2.90;80.00;;;;;;4957625;29;20422;-73
2022/04/02 13:24:18;;;;;;;1.20;1.20;;;3.00;80.30;;;;;;4957535;28;20486;-73
2022/04/02 13:26:55;;;;;;;1.30;1.20;;;3.30;80.40;;;;;;4957702;28;20477;-71
2022/04/02 13:29:37;;;;;;;1.20;1.20;;;3.20;79.70;;;;;;4957453;28;20522;-72
2022/04/02 13:32:21;;;;;;;1.20;1.20;;;3.10;79.70;;;;;;4957543;28;20911;-73
2022/04/02 13:34:58;;;;;;;1.50;1.40;;;3.20;80.40;;;;;;4957356;28;20482;-73
2022/04/02 13:37:35;;;;;;;1.50;1.40;;;3.00;80.00;;;;;;4957466;28;20470;-73
2022/04/02 13:40:02;;;;;;;1.60;1.50;;;3.20;80.40;;;;;;4957281;28;20497;-74
2022/04/02 13:42:50;;;;;;;1.07;1.07;;;3.30;79.50;;;;;;4957246;28;20451;-74
2022/04/02 13:45:20;;;;;;;1.30;1.20;;;3.40;79.70;;;;;;4957218;28;20474;-73
2022/04/02 13:47:56;;;;;;;1.07;1.03;;;3.40;79.50;;;;;;4957155;28;20475;-73
2022/04/02 13:50:26;;;;;;;1.10;1.10;;;3.50;79.10;;;;;;4957102;28;20446;-73
2022/04/02 13:53:03;;;;;;;1.20;1.20;;;3.60;79.20;;;;;;4957177;28;20439;-74
2022/04/02 13:55:31;;;;;;;0.90;0.90;;;3.60;78.90;;;;;;4957400;28;20514;-74
2022/04/02 13:58:03;;;;;;;1.10;1.00;;;3.60;78.80;;;;;;4957456;28;20479;-73
2022/04/02 14:00:37;;;;;;;1.20;1.20;;;3.40;79.10;;;;;;4956950;28;20435;-74
2022/04/02 14:03:06;;;;;;;1.23;1.17;;;3.30;79.60;;;;;;4956790;28;20526;-73
2022/04/02 14:05:37;;;;;;;1.20;1.20;;;3.30;79.50;;;;;;4956553;28;20594;-73
2022/04/02 14:08:06;;;;;;;1.23;1.13;;;3.40;79.30;;;;;;4956825;28;20479;-74
2022/04/02 14:10:36;;;;;;;1.10;1.00;;;3.30;79.30;;;;;;4956679;28;20803;-74
2022/04/02 14:13:11;;;;;;;1.07;1.07;;;3.50;79.70;;;;;;4956982;28;20485;-73
2022/04/02 14:15:41;;;;;;;1.20;1.20;;;3.60;79.70;;;;;;4956209;28;20541;-74
2022/04/02 14:18:11;;;;;;;1.30;1.20;;;3.50;79.70;;;;;;4956309;28;20483;-73
2022/04/02 14:20:37;;;;;;;1.20;1.10;;;3.40;79.50;;;;;;4956347;28;20537;-73
2022/04/02 14:23:14;;;;;;;1.37;1.27;;;3.20;80.30;;;;;;4956397;28;20450;-73
2022/04/02 14:26:06;;;;;;;1.17;1.10;;;3.20;80.90;;;;;;4956071;28;20600;-72
2022/04/02 14:28:49;;;;;;;1.30;1.20;;;3.30;80.80;;;;;;4929350;28;20954;-73
2022/04/02 14:31:48;;;;;;;1.30;1.20;;;3.30;80.80;;;;;;4956266;28;20439;-72
2022/04/02 14:34:49;;;;;;;1.30;1.20;;;3.30;80.00;;;;;;4956283;28;20431;-72
2022/04/02 14:37:52;;;;;;;1.00;1.00;;;3.30;80.20;;;;;;4956716;28;20473;-73
2022/04/02 14:40:41;;;;;;;1.20;1.10;;;3.10;79.90;;;;;;4956241;28;20431;-72
2022/04/02 14:43:38;;;;;;;1.13;1.13;;;3.10;80.30;;;;;;4955989;28;20557;-73
2022/04/02 14:46:38;;;;;;;1.37;1.27;;;3.20;80.80;;;;;;4955731;28;20428;-73
2022/04/02 14:49:52;;;;;;;1.20;1.10;;;3.00;80.60;;;;;;4955809;28;20431;-72
2022/04/02 14:52:55;;;;;;;1.27;1.20;;;3.10;81.10;;;;;;4956597;28;20815;-72
2022/04/02 14:56:01;;;;;;;1.33;1.23;;;3.30;80.40;;;;;;4955821;28;20427;-73
2022/04/02 14:59:08;;;;;;;1.43;1.33;;;3.40;79.90;;;;;;4956353;28;20500;-72
2022/04/02 15:02:23;;;;;;;1.60;1.50;;;3.40;79.90;;;;;;4947341;29;20463;-72
2022/04/02 15:05:40;;;;;;;1.83;1.73;;;3.40;80.20;;;;;;4896392;29;20517;-72
2022/04/02 15:08:32;;;;;;;1.30;1.20;;;3.10;80.60;;;;;;4896514;29;20473;-72
2022/04/02 15:11:01;;;;;;;1.20;1.20;;;2.80;81.10;;;;;;4956221;28;20490;-72
2022/04/02 15:13:30;;;;;;;1.50;1.40;;;2.70;80.90;;;;;;4955746;28;20451;-73
2022/04/02 15:16:03;;;;;;;1.40;1.30;;;2.60;81.40;;;;;;4955823;28;20462;-73
2022/04/02 15:18:31;;;;;;;1.70;1.60;;;2.60;81.90;;;;;;4956240;28;20479;-72
2022/04/02 15:21:09;;;;;;;1.50;1.40;;;2.60;81.90;;;;;;4955177;28;20463;-71
2022/04/02 15:23:49;;;;;;;1.53;1.43;;;2.70;82.20;;;;;;4955332;28;20441;-72
2022/04/02 15:26:20;;;;;;;1.50;1.33;;;2.90;82.20;;;;;;4955578;28;20439;-72
2022/04/02 15:28:50;;;;;;;1.30;1.20;;;2.90;81.80;;;;;;4954837;28;20745;-72
2022/04/02 15:31:28;;;;;;;1.67;1.40;;;2.80;81.60;;;;;;4955243;28;20537;-72
2022/04/02 15:33:55;;;;;;;1.40;1.30;;;2.80;82.10;;;;;;4957122;28;20487;-72
2022/04/02 15:36:24;;;;;;;1.73;1.63;;;2.80;81.50;;;;;;4967583;28;20959;-72
2022/04/02 15:38:52;;;;;;;1.73;1.63;;;2.90;81.40;;;;;;4976055;28;20451;-71
2022/04/02 15:41:19;;;;;;;1.97;1.87;;;3.00;81.50;;;;;;4962875;28;20858;-73
2022/04/02 15:43:46;;;;;;;1.60;1.50;;;3.00;81.30;;;;;;4960094;28;20489;-73
2022/04/02 15:46:28;;;;;;;1.97;1.87;;;2.90;81.50;;;;;;4961335;28;20547;-74
2022/04/02 15:49:38;;;;;;;1.50;1.40;;;3.00;81.60;;;;;;4958932;28;20843;-73
2022/04/02 15:52:22;;;;;;;1.70;1.60;;;3.20;81.60;;;;;;4898929;29;20811;-73
2022/04/02 15:54:59;;;;;;;1.30;1.20;;;3.20;81.40;;;;;;4898260;29;20446;-74
2022/04/02 15:57:26;;;;;;;1.50;1.40;;;3.20;81.40;;;;;;4939089;28;20479;-73
2022/04/02 16:00:22;;;;;;;1.37;1.27;;;3.30;81.30;;;;;;4956471;28;20865;-72
2022/04/02 16:02:50;;;;;;;1.40;1.30;;;3.30;81.00;;;;;;4957212;28;20530;-73
2022/04/02 16:05:20;;;;;;;1.50;1.40;;;3.20;81.50;;;;;;4958573;28;20483;-73
2022/04/02 16:08:08;;;;;;;1.70;1.60;;;3.30;81.30;;;;;;4958133;28;20481;-73
2022/04/02 16:10:36;;;;;;;1.50;1.40;;;3.20;81.60;;;;;;4958035;28;20431;-73
2022/04/02 16:13:20;;;;;;;1.30;1.20;;;3.30;81.50;;;;;;4957928;28;20950;-73
2022/04/02 16:16:02;;;;;;;1.50;1.40;;;3.30;81.20;;;;;;4958234;28;20439;-74
2022/04/02 16:18:28;;;;;;;1.30;1.20;;;3.20;81.70;;;;;;4956930;28;20478;-73
2022/04/02 16:21:04;;;;;;;1.50;1.40;;;3.30;81.70;;;;;;4957060;28;20435;-73
2022/04/02 16:23:34;;;;;;;1.50;1.40;;;3.30;81.50;;;;;;4956884;28;20806;-73
2022/04/02 16:26:03;;;;;;;1.63;1.53;;;3.30;81.40;;;;;;4957554;28;20489;-73
2022/04/02 16:28:32;;;;;;;1.60;1.50;;;3.20;81.80;;;;;;4957423;28;20458;-73
2022/04/02 16:31:00;;;;;;;1.50;1.40;;;3.10;81.50;;;;;;4956797;28;20443;-74
2022/04/02 16:33:28;;;;;;;1.30;1.30;;;3.20;82.00;;;;;;4956657;28;20447;-74
2022/04/02 16:36:01;;;;;;;1.40;1.30;;;3.10;82.20;;;;;;4957129;28;20939;-73